createdAt,value
2018-05-04T00:01:43.940Z,74.48
2018-05-04T00:04:09.953Z,74.57
2018-05-04T00:06:36.006Z,74.87
2018-05-04T00:09:02.069Z,75.07
2018-05-04T00:11:28.094Z,75.10
2018-05-04T00:13:54.112Z,75.10
2018-05-04T00:16:20.161Z,75.33
2018-05-04T00:18:46.194Z,75.78
2018-05-04T00:21:12.184Z,76.45
2018-05-04T00:23:38.185Z,76.15
2018-05-04T00:26:04.290Z,76.05
2018-05-04T00:28:30.292Z,76.70
2018-05-04T00:30:56.276Z,76.79
2018-05-04T00:33:22.296Z,76.64
2018-05-04T00:35:48.281Z,77.23
2018-05-04T00:38:14.370Z,77.68
2018-05-04T00:40:40.313Z,77.28
2018-05-04T00:43:06.332Z,76.46
2018-05-04T00:45:32.389Z,76.23
2018-05-04T00:47:58.398Z,78.59
2018-05-04T00:50:24.401Z,77.46
2018-05-04T00:52:50.448Z,77.64
2018-05-04T00:55:16.456Z,78.05
2018-05-04T00:57:42.506Z,78.03
2018-05-04T01:00:08.523Z,77.57
2018-05-04T01:02:34.580Z,78.01
2018-05-04T01:05:00.591Z,77.83
2018-05-04T01:07:26.591Z,77.82
2018-05-04T01:09:52.584Z,77.76
2018-05-04T01:12:18.585Z,77.96
2018-05-04T01:14:44.579Z,77.97
2018-05-04T01:17:10.589Z,78.96
2018-05-04T01:19:36.612Z,78.29
2018-05-04T01:22:02.634Z,78.47
2018-05-04T01:24:28.706Z,78.07
2018-05-04T01:26:54.706Z,78.31
2018-05-04T01:29:20.708Z,78.27
2018-05-04T01:31:46.745Z,78.73
2018-05-04T01:34:12.937Z,79.64
2018-05-04T01:36:38.944Z,79.90
2018-05-04T01:39:04.977Z,79.04
2018-05-04T01:41:30.998Z,79.12
2018-05-04T01:43:57.181Z,79.76
2018-05-04T01:46:23.182Z,79.12
2018-05-04T01:48:49.177Z,79.03
2018-05-04T01:51:15.220Z,78.92
2018-05-04T01:53:41.282Z,78.78
2018-05-04T01:56:07.280Z,79.51
2018-05-04T01:58:33.408Z,79.48
2018-05-04T02:00:59.721Z,79.71
2018-05-04T02:03:26.107Z,79.84
2018-05-04T02:05:52.090Z,80.84
2018-05-04T02:08:18.328Z,80.38
2018-05-04T02:10:44.328Z,80.25
2018-05-04T02:13:10.343Z,80.14
2018-05-04T02:15:36.349Z,80.20
2018-05-04T02:18:02.342Z,80.12
2018-05-04T02:20:28.365Z,80.03
2018-05-04T02:22:54.348Z,80.40
2018-05-04T02:25:20.401Z,80.44
2018-05-04T02:27:46.394Z,80.67
2018-05-04T02:30:13.185Z,80.94
2018-05-04T02:32:39.381Z,80.28
2018-05-04T02:35:05.587Z,80.83
2018-05-04T02:37:31.562Z,80.65
2018-05-04T02:39:57.577Z,80.72
2018-05-04T02:42:23.588Z,80.91
2018-05-04T02:44:49.707Z,80.55
2018-05-04T02:47:15.726Z,81.91
2018-05-04T02:49:41.732Z,80.81
2018-05-04T02:52:08.642Z,80.93
2018-05-04T02:54:34.689Z,80.95
2018-05-04T02:57:00.677Z,81.23
2018-05-04T02:59:26.704Z,81.22
2018-05-04T03:01:52.742Z,81.98
2018-05-04T03:04:18.761Z,81.62
2018-05-04T03:06:44.761Z,81.36
2018-05-04T03:09:10.773Z,81.42
2018-05-04T03:11:36.818Z,81.10
2018-05-04T03:14:03.058Z,81.10
2018-05-04T03:16:29.776Z,81.14
2018-05-04T03:18:55.784Z,81.56
2018-05-04T03:21:21.784Z,81.35
2018-05-04T03:23:48.414Z,81.90
2018-05-04T03:26:14.421Z,81.80
2018-05-04T03:28:40.419Z,81.71
2018-05-04T03:31:06.439Z,81.88
2018-05-04T03:33:32.490Z,81.79
2018-05-04T03:35:58.499Z,82.20
2018-05-04T03:38:24.508Z,82.29
2018-05-04T03:40:50.803Z,82.39
2018-05-04T03:43:16.814Z,81.93
2018-05-04T03:45:42.883Z,82.07
2018-05-04T03:48:08.870Z,82.49
2018-05-04T03:50:34.916Z,82.39
2018-05-04T03:53:00.975Z,82.02
2018-05-04T03:55:26.989Z,81.92
2018-05-04T03:58:05.461Z,81.87
2018-05-04T04:00:43.563Z,82.07
2018-05-04T04:03:21.656Z,82.72
2018-05-04T04:05:47.709Z,82.43
2018-05-04T04:08:13.711Z,82.77
2018-05-04T04:10:39.757Z,82.98
2018-05-04T04:13:05.777Z,83.16
2018-05-04T04:15:31.755Z,83.17
2018-05-04T04:17:57.753Z,83.21
2018-05-04T04:20:23.821Z,83.12
2018-05-04T04:22:49.843Z,83.44
2018-05-04T04:25:15.850Z,82.82
2018-05-04T04:27:41.827Z,83.20
2018-05-04T04:30:07.832Z,83.26
2018-05-04T04:32:33.841Z,83.05
2018-05-04T04:34:59.932Z,83.31
2018-05-04T04:37:25.961Z,82.98
2018-05-04T04:39:51.949Z,83.51
2018-05-04T04:42:17.949Z,83.17
2018-05-04T04:44:43.937Z,82.93
2018-05-04T04:47:09.972Z,83.48
2018-05-04T04:49:35.995Z,83.51
2018-05-04T04:52:02.014Z,83.36
2018-05-04T04:54:35.110Z,83.87
2018-05-04T04:57:01.173Z,83.42
2018-05-04T04:59:27.220Z,83.11
2018-05-04T05:01:53.540Z,83.12
2018-05-04T05:04:19.697Z,82.81
2018-05-04T05:06:45.696Z,82.70
2018-05-04T05:09:11.691Z,82.83
2018-05-04T05:11:37.728Z,83.32
2018-05-04T05:14:03.726Z,82.53
2018-05-04T05:16:29.705Z,83.05
2018-05-04T05:18:56.238Z,82.44
2018-05-04T05:21:22.259Z,81.70
2018-05-04T05:23:48.624Z,81.71
2018-05-04T05:26:14.640Z,81.30
2018-05-04T05:28:40.634Z,81.24
2018-05-04T05:31:06.655Z,81.77
2018-05-04T05:33:32.658Z,81.30
2018-05-04T05:35:58.720Z,81.28
2018-05-04T05:38:24.828Z,81.06
2018-05-04T05:40:50.850Z,80.87
2018-05-04T05:43:16.836Z,80.37
2018-05-04T05:45:43.161Z,80.20
2018-05-04T05:48:09.329Z,79.55
2018-05-04T05:50:35.685Z,79.12
2018-05-04T05:53:01.760Z,78.72
2018-05-04T05:55:27.836Z,78.44
2018-05-04T05:57:53.849Z,78.19
2018-05-04T06:00:20.030Z,77.71
2018-05-04T06:02:46.048Z,77.28
2018-05-04T06:05:12.053Z,76.98
2018-05-04T06:07:38.093Z,76.53
2018-05-04T06:10:04.116Z,75.93
2018-05-04T06:12:30.189Z,74.69
2018-05-04T06:14:56.251Z,73.70
2018-05-04T06:17:22.235Z,73.51
2018-05-04T06:19:48.309Z,73.38
2018-05-04T06:22:14.514Z,73.59
2018-05-04T06:24:40.525Z,72.37
2018-05-04T06:27:06.516Z,72.32
2018-05-04T06:29:32.569Z,72.36
2018-05-04T06:31:58.600Z,71.60
2018-05-04T06:34:24.680Z,70.90
2018-05-04T06:36:50.716Z,70.90
2018-05-04T06:39:16.753Z,70.59
2018-05-04T06:41:42.775Z,70.09
2018-05-04T06:44:08.796Z,69.59
2018-05-04T06:46:34.907Z,69.64
2018-05-04T06:49:00.910Z,69.23
2018-05-04T06:51:27.024Z,69.10
2018-05-04T06:53:53.147Z,68.39
2018-05-04T06:56:19.114Z,68.35
2018-05-04T06:58:45.156Z,68.18
2018-05-04T07:01:11.829Z,67.72
2018-05-04T07:03:37.832Z,67.48
2018-05-04T07:06:03.940Z,67.85
2018-05-04T07:08:29.971Z,67.13
2018-05-04T07:10:56.039Z,66.83
2018-05-04T07:13:22.112Z,66.69
2018-05-04T07:15:48.141Z,65.95
2018-05-04T07:18:14.266Z,65.94
2018-05-04T07:20:40.331Z,65.76
2018-05-04T07:23:06.390Z,65.19
2018-05-04T07:25:32.424Z,64.71
2018-05-04T07:27:58.561Z,63.05
2018-05-04T07:30:24.619Z,62.45
2018-05-04T07:32:50.656Z,62.62
2018-05-04T07:35:16.673Z,59.88
2018-05-04T07:37:42.889Z,58.59
2018-05-04T07:40:08.993Z,57.97
2018-05-04T07:42:35.038Z,57.91
2018-05-04T07:45:01.091Z,57.45
2018-05-04T07:47:27.184Z,55.87
2018-05-04T07:49:53.267Z,57.26
2018-05-04T07:52:19.417Z,57.40
2018-05-04T07:54:45.438Z,55.81
2018-05-04T07:57:11.480Z,55.54
2018-05-04T07:59:37.564Z,56.38
2018-05-04T08:02:03.692Z,53.77
2018-05-04T08:04:29.724Z,55.00
2018-05-04T08:06:55.774Z,53.26
2018-05-04T08:09:21.824Z,52.51
2018-05-04T08:11:49.682Z,52.45
2018-05-04T08:14:15.813Z,54.45
2018-05-04T08:16:41.837Z,53.53
2018-05-04T08:19:07.919Z,52.31
2018-05-04T08:21:33.970Z,54.52
2018-05-04T08:24:00.072Z,54.26
2018-05-04T08:26:26.043Z,53.27
2018-05-04T08:28:52.061Z,52.75
2018-05-04T08:31:18.122Z,50.40
2018-05-04T08:33:44.184Z,50.29
2018-05-04T08:36:10.220Z,50.63
2018-05-04T08:38:36.305Z,51.98
2018-05-04T08:41:02.339Z,51.74
2018-05-04T08:43:29.201Z,52.24
2018-05-04T08:45:55.292Z,51.94
2018-05-04T08:48:23.944Z,49.39
2018-05-04T08:50:50.012Z,47.41
2018-05-04T08:53:16.027Z,48.50
2018-05-04T08:55:42.139Z,50.56
2018-05-04T08:58:08.156Z,50.71
2018-05-04T09:00:34.222Z,48.77
2018-05-04T09:03:00.240Z,46.30
2018-05-04T09:05:26.420Z,46.98
2018-05-04T09:07:52.357Z,46.57
2018-05-04T09:10:18.851Z,45.58
2018-05-04T09:12:44.943Z,47.44
2018-05-04T09:15:11.733Z,45.82
2018-05-04T09:17:37.739Z,46.57
2018-05-04T09:20:03.812Z,46.39
2018-05-04T09:22:29.841Z,47.71
2018-05-04T09:24:55.885Z,46.38
2018-05-04T09:27:21.940Z,43.77
2018-05-04T09:29:47.999Z,42.25
2018-05-04T09:32:14.023Z,41.92
2018-05-04T09:34:40.060Z,43.88
2018-05-04T09:37:06.089Z,45.66
2018-05-04T09:39:32.150Z,41.69
2018-05-04T09:41:58.195Z,43.13
2018-05-04T09:44:24.184Z,40.59
2018-05-04T09:46:50.217Z,40.20
2018-05-04T09:49:16.306Z,41.52
2018-05-04T09:51:42.433Z,43.17
2018-05-04T09:54:08.521Z,42.94
2018-05-04T09:56:34.622Z,43.94
2018-05-04T09:59:00.786Z,43.05
2018-05-04T10:01:26.802Z,41.40
2018-05-04T10:03:52.825Z,42.90
2018-05-04T10:08:51.565Z,39.82
2018-05-04T10:11:17.613Z,40.40
2018-05-04T10:13:44.195Z,38.81
2018-05-04T10:16:10.341Z,39.57
2018-05-04T10:18:36.333Z,35.12
2018-05-04T10:21:02.397Z,33.61
2018-05-04T10:23:28.416Z,33.68
2018-05-04T10:25:54.440Z,33.33
2018-05-04T10:28:20.485Z,33.38
2018-05-04T10:30:46.492Z,34.14
2018-05-04T10:33:12.549Z,34.27
2018-05-04T10:35:38.599Z,32.64
2018-05-04T10:38:04.711Z,29.19
2018-05-04T10:40:30.816Z,28.73
2018-05-04T10:42:56.846Z,29.52
2018-05-04T10:45:22.925Z,27.60
2018-05-04T10:47:48.968Z,26.71
2018-05-04T10:50:15.092Z,26.67
2018-05-04T10:52:41.133Z,25.94
2018-05-04T10:55:07.229Z,26.25
2018-05-04T10:57:33.339Z,25.84
2018-05-04T10:59:59.581Z,23.58
2018-05-04T11:02:25.669Z,24.09
2018-05-04T11:04:51.774Z,23.47
2018-05-04T11:07:17.794Z,23.58
2018-05-04T11:09:43.785Z,23.77
2018-05-04T11:12:09.936Z,22.55
2018-05-04T11:14:35.931Z,22.18
2018-05-04T11:17:01.966Z,22.89
2018-05-04T11:19:28.087Z,23.98
2018-05-04T11:21:54.129Z,21.84
2018-05-04T11:24:20.144Z,23.63
2018-05-04T11:26:46.473Z,22.82
2018-05-04T11:29:12.485Z,21.95
2018-05-04T11:31:38.511Z,20.46
2018-05-04T11:34:04.521Z,21.06
2018-05-04T11:36:30.541Z,22.02
2018-05-04T11:38:56.583Z,20.31
2018-05-04T11:41:22.637Z,20.18
2018-05-04T11:43:48.818Z,22.83
2018-05-04T11:46:14.940Z,20.62
2018-05-04T11:48:41.106Z,19.28
2018-05-04T11:51:07.152Z,22.72
2018-05-04T11:53:33.273Z,21.87
2018-05-04T11:55:59.371Z,19.32
2018-05-04T11:58:25.423Z,19.99
2018-05-04T12:00:51.444Z,20.56
2018-05-04T12:03:17.440Z,20.37
2018-05-04T12:05:44.311Z,21.25
2018-05-04T12:08:10.326Z,22.09
2018-05-04T12:10:36.359Z,20.35
2018-05-04T12:13:02.416Z,21.51
2018-05-04T12:15:28.464Z,19.46
2018-05-04T12:20:27.363Z,19.66
2018-05-04T12:22:54.160Z,18.84
2018-05-04T12:25:20.122Z,19.30
2018-05-04T12:27:46.135Z,18.69
2018-05-04T12:30:12.189Z,18.53
2018-05-04T12:32:38.367Z,21.37
2018-05-04T12:35:04.407Z,20.29
2018-05-04T12:37:30.475Z,18.44
2018-05-04T12:39:56.511Z,19.92
2018-05-04T12:42:22.525Z,19.41
2018-05-04T12:44:48.528Z,17.86
2018-05-04T12:47:14.540Z,19.20
2018-05-04T12:49:40.557Z,18.43
2018-05-04T12:52:06.599Z,19.82
2018-05-04T12:54:33.408Z,20.33
2018-05-04T12:56:59.497Z,20.72
2018-05-04T12:59:25.583Z,20.33
2018-05-04T13:01:51.562Z,20.44
2018-05-04T13:04:17.580Z,19.81
2018-05-04T13:06:43.653Z,20.14
2018-05-04T13:09:09.872Z,20.62
2018-05-04T13:11:35.931Z,21.24
2018-05-04T13:14:02.055Z,21.67
2018-05-04T13:16:28.209Z,21.24
2018-05-04T13:18:54.248Z,21.61
2018-05-04T13:21:20.308Z,22.34
2018-05-04T13:23:46.386Z,23.71
2018-05-04T13:26:12.494Z,23.70
2018-05-04T13:28:38.599Z,23.57
2018-05-04T13:31:04.624Z,23.01
2018-05-04T13:33:30.751Z,23.01
2018-05-04T13:35:57.316Z,23.92
2018-05-04T13:38:23.446Z,24.76
2018-05-04T13:40:49.458Z,24.88
2018-05-04T13:43:22.839Z,25.71
2018-05-04T13:45:48.884Z,25.64
2018-05-04T13:48:14.907Z,25.55
2018-05-04T13:50:41.072Z,25.96
2018-05-04T13:53:07.139Z,25.31
2018-05-04T13:55:33.452Z,25.93
2018-05-04T13:57:59.401Z,26.30
2018-05-04T14:00:25.422Z,26.52
2018-05-04T14:02:51.635Z,26.29
2018-05-04T14:05:17.778Z,26.32
2018-05-04T14:07:43.797Z,26.19
2018-05-04T14:10:09.803Z,26.88
2018-05-04T14:12:35.973Z,25.98
2018-05-04T14:15:02.018Z,25.49
2018-05-04T14:17:28.077Z,25.94
2018-05-04T14:19:54.104Z,25.26
2018-05-04T14:22:20.124Z,26.38
2018-05-04T14:24:46.196Z,23.30
2018-05-04T14:27:12.272Z,22.96
2018-05-04T14:29:38.278Z,22.60
2018-05-04T14:32:04.270Z,20.63
2018-05-04T14:34:30.327Z,20.32
2018-05-04T14:36:56.363Z,19.37
2018-05-04T14:39:22.371Z,19.02
2018-05-04T14:41:48.405Z,19.90
2018-05-04T14:44:14.460Z,20.72
2018-05-04T14:46:40.490Z,18.78
2018-05-04T14:49:06.533Z,19.12
2018-05-04T14:51:32.608Z,18.76
2018-05-04T14:53:58.626Z,19.04
2018-05-04T14:56:24.857Z,18.55
2018-05-04T14:58:50.920Z,19.07
2018-05-04T15:01:16.985Z,19.02
2018-05-04T15:03:43.041Z,19.69
2018-05-04T15:06:09.097Z,19.42
2018-05-04T15:08:35.118Z,20.30
2018-05-04T15:11:01.133Z,19.00
2018-05-04T15:13:27.250Z,17.82
2018-05-04T15:15:53.319Z,18.20
2018-05-04T15:18:19.372Z,18.89
2018-05-04T15:20:45.386Z,18.30
2018-05-04T15:23:11.477Z,19.11
2018-05-04T15:25:37.597Z,19.17
2018-05-04T15:28:03.635Z,18.80
2018-05-04T15:30:29.689Z,19.45
2018-05-04T15:32:55.833Z,19.34
2018-05-04T15:35:22.651Z,17.95
2018-05-04T15:41:00.349Z,18.81
2018-05-04T15:43:26.356Z,18.56
2018-05-04T15:45:52.435Z,19.85
2018-05-04T15:48:24.346Z,19.11
2018-05-04T15:53:50.967Z,19.79
2018-05-04T15:56:17.179Z,21.00
2018-05-04T15:58:43.345Z,22.45
2018-05-04T16:01:09.436Z,23.55
2018-05-04T16:03:35.458Z,24.46
2018-05-04T16:06:09.424Z,23.22
2018-05-04T16:08:35.577Z,22.33
2018-05-04T16:11:02.481Z,21.00
2018-05-04T16:13:28.674Z,21.12
2018-05-04T16:15:54.868Z,21.01
2018-05-04T16:18:20.931Z,21.52
2018-05-04T16:20:47.114Z,23.96
2018-05-04T16:23:13.251Z,25.89
2018-05-04T16:25:39.375Z,27.10
2018-05-04T16:28:05.458Z,28.55
2018-05-04T16:30:31.602Z,29.37
2018-05-04T16:32:57.744Z,30.22
2018-05-04T16:35:23.826Z,31.10
2018-05-04T16:37:49.940Z,32.01
2018-05-04T16:40:15.979Z,32.23
2018-05-04T16:42:42.003Z,33.17
2018-05-04T16:45:08.139Z,33.26
2018-05-04T16:47:41.106Z,34.14
2018-05-04T16:50:07.282Z,34.79
2018-05-04T16:52:33.407Z,35.04
2018-05-04T16:54:59.430Z,35.06
2018-05-04T16:57:25.476Z,35.76
2018-05-04T16:59:51.558Z,36.14
2018-05-04T17:02:17.713Z,36.51
2018-05-04T17:04:43.766Z,36.83
2018-05-04T17:07:09.820Z,37.46
2018-05-04T17:09:36.053Z,38.02
2018-05-04T17:12:02.126Z,38.59
2018-05-04T17:14:28.189Z,41.55
2018-05-04T17:16:54.232Z,41.78
2018-05-04T17:19:20.287Z,42.00
2018-05-04T17:21:46.382Z,40.93
2018-05-04T17:24:12.560Z,41.22
2018-05-04T17:26:38.645Z,42.82
2018-05-04T17:29:04.717Z,43.64
2018-05-04T17:31:30.809Z,42.51
2018-05-04T17:33:56.859Z,43.85
2018-05-04T17:36:22.933Z,44.36
2018-05-04T17:38:49.059Z,44.62
2018-05-04T17:41:15.113Z,45.21
2018-05-04T17:43:41.971Z,45.73
2018-05-04T17:46:07.979Z,45.59
2018-05-04T17:48:34.077Z,45.36
2018-05-04T17:51:00.127Z,46.83
2018-05-04T17:53:26.168Z,46.25
2018-05-04T17:55:52.208Z,46.25
2018-05-04T17:58:18.262Z,46.38
2018-05-04T18:00:44.300Z,45.48
2018-05-04T18:03:10.444Z,46.55
2018-05-04T18:05:36.469Z,45.30
2018-05-04T18:08:02.490Z,46.77
2018-05-04T18:10:29.325Z,44.73
2018-05-04T18:12:56.020Z,45.68
2018-05-04T18:15:22.051Z,44.70
2018-05-04T18:17:48.081Z,45.62
2018-05-04T18:20:14.104Z,46.07
2018-05-04T18:22:40.120Z,45.35
2018-05-04T18:25:06.136Z,45.09
2018-05-04T18:27:32.190Z,44.20
2018-05-04T18:29:58.236Z,45.14
2018-05-04T18:32:24.248Z,44.98
2018-05-04T18:34:50.333Z,45.43
2018-05-04T18:37:16.368Z,45.98
2018-05-04T18:39:42.381Z,46.15
2018-05-04T18:42:08.417Z,47.27
2018-05-04T18:44:34.516Z,46.68
2018-05-04T18:47:00.639Z,46.66
2018-05-04T18:49:26.678Z,47.03
2018-05-04T18:51:53.147Z,47.09
2018-05-04T18:54:19.183Z,48.17
2018-05-04T18:56:45.461Z,47.67
2018-05-04T18:59:11.489Z,48.09
2018-05-04T19:01:37.602Z,48.25
2018-05-04T19:04:03.709Z,48.09
2018-05-04T19:06:29.732Z,49.58
2018-05-04T19:08:55.733Z,49.48
2018-05-04T19:11:21.928Z,49.67
2018-05-04T19:13:48.129Z,50.25
2018-05-04T19:16:14.256Z,49.48
2018-05-04T19:18:40.300Z,50.34
2018-05-04T19:21:06.314Z,49.88
2018-05-04T19:23:32.347Z,49.96
2018-05-04T19:25:58.437Z,50.29
2018-05-04T19:28:24.586Z,50.38
2018-05-04T19:30:50.572Z,50.37
2018-05-04T19:33:16.589Z,50.27
2018-05-04T19:35:42.939Z,50.22
2018-05-04T19:38:09.053Z,49.84
2018-05-04T19:40:35.204Z,50.67
2018-05-04T19:43:01.372Z,50.55
2018-05-04T19:45:27.460Z,49.89
2018-05-04T19:47:53.544Z,50.66
2018-05-04T19:50:19.689Z,50.20
2018-05-04T19:52:45.794Z,50.23
2018-05-04T19:55:11.895Z,50.68
2018-05-04T19:57:37.948Z,51.10
2018-05-04T20:00:04.072Z,51.38
2018-05-04T20:02:30.302Z,51.79
2018-05-04T20:04:56.502Z,52.21
2018-05-04T20:07:22.630Z,51.53
2018-05-04T20:09:50.468Z,51.95
2018-05-04T20:12:16.580Z,52.07
2018-05-04T20:14:42.617Z,51.92
2018-05-04T20:17:08.717Z,52.23
2018-05-04T20:19:34.757Z,52.45
2018-05-04T20:22:00.836Z,53.62
2018-05-04T20:24:26.903Z,53.16
2018-05-04T20:26:53.138Z,53.45
2018-05-04T20:29:19.335Z,54.29
2018-05-04T20:31:46.077Z,54.10
2018-05-04T20:34:12.252Z,54.10
2018-05-04T20:36:38.441Z,54.45
2018-05-04T20:39:04.551Z,54.46
2018-05-04T20:41:31.268Z,54.24
2018-05-04T20:43:57.408Z,55.26
2018-05-04T20:46:23.539Z,54.80
2018-05-04T20:48:49.707Z,54.69
2018-05-04T20:51:15.826Z,55.36
2018-05-04T20:53:41.900Z,55.90
2018-05-04T20:56:07.941Z,55.84
2018-05-04T20:58:33.961Z,56.81
2018-05-04T21:00:59.977Z,56.70
2018-05-04T21:03:26.004Z,56.92
2018-05-04T21:05:52.080Z,58.10
2018-05-04T21:08:18.182Z,58.22
2018-05-04T21:10:44.283Z,57.41
2018-05-04T21:13:10.674Z,57.91
2018-05-04T21:15:36.908Z,57.80
2018-05-04T21:18:02.968Z,58.45
2018-05-04T21:20:28.996Z,57.22
2018-05-04T21:22:55.096Z,57.29
2018-05-04T21:25:21.233Z,57.85
2018-05-04T21:27:47.342Z,57.86
2018-05-04T21:30:13.475Z,58.26
2018-05-04T21:32:39.491Z,57.65
2018-05-04T21:35:05.530Z,57.67
2018-05-04T21:37:31.944Z,58.33
2018-05-04T21:39:58.074Z,58.53
2018-05-04T21:42:24.075Z,58.86
2018-05-04T21:44:50.112Z,58.56
2018-05-04T21:47:16.304Z,58.95
2018-05-04T21:49:42.362Z,58.67
2018-05-04T21:52:08.515Z,58.96
2018-05-04T21:54:34.788Z,59.65
2018-05-04T21:57:00.833Z,60.16
2018-05-04T21:59:26.964Z,60.32
2018-05-04T22:01:53.003Z,59.98
2018-05-04T22:04:19.049Z,60.54
2018-05-04T22:06:45.172Z,60.73
2018-05-04T22:09:11.476Z,61.02
2018-05-04T22:11:37.841Z,60.86
2018-05-04T22:14:04.062Z,60.95
2018-05-04T22:16:30.159Z,61.17
2018-05-04T22:18:56.395Z,60.76
2018-05-04T22:21:22.466Z,61.07
2018-05-04T22:23:48.572Z,61.55
2018-05-04T22:26:14.641Z,61.56
2018-05-04T22:28:40.880Z,61.83
2018-05-04T22:31:07.065Z,61.86
2018-05-04T22:33:33.190Z,63.04
2018-05-04T22:35:59.253Z,62.27
2018-05-04T22:38:25.302Z,63.62
2018-05-04T22:40:51.416Z,63.35
2018-05-04T22:43:17.510Z,63.49
2018-05-04T22:45:43.574Z,63.78
2018-05-04T22:48:09.602Z,63.49
2018-05-04T22:50:35.776Z,64.27
2018-05-04T22:53:01.905Z,64.26
2018-05-04T22:55:27.972Z,64.34
2018-05-04T22:57:53.989Z,64.23
2018-05-04T23:00:20.137Z,64.27
2018-05-04T23:02:46.208Z,65.40
2018-05-04T23:05:12.259Z,65.82
2018-05-04T23:07:38.335Z,65.08
2018-05-04T23:10:04.417Z,65.86
2018-05-04T23:12:30.455Z,65.08
2018-05-04T23:14:56.469Z,65.11
2018-05-04T23:17:22.486Z,66.00
2018-05-04T23:19:48.477Z,67.19
2018-05-04T23:22:26.744Z,66.13
2018-05-04T23:24:53.421Z,66.86
2018-05-04T23:27:19.531Z,66.86
2018-05-04T23:29:45.577Z,67.36
2018-05-04T23:32:11.623Z,66.91
2018-05-04T23:34:37.753Z,67.09
2018-05-04T23:37:03.924Z,67.45
2018-05-04T23:39:30.046Z,67.58
2018-05-04T23:41:56.136Z,67.22
2018-05-04T23:44:22.156Z,68.65
2018-05-04T23:46:48.136Z,68.01
2018-05-04T23:49:14.177Z,68.07
2018-05-04T23:51:40.196Z,68.90
2018-05-04T23:54:06.343Z,68.51
2018-05-04T23:56:32.404Z,68.86
2018-05-04T23:58:58.413Z,68.70
